UBBB/BAK METAR and TAF weather

Enter ICAO airport designator
Station Type Date Time Source
UBBB METAR 2019/02/17 08:00 UTC NOAA

UBBB 170800Z 32011KT 9999 SCT017 BKN046 06/03 Q1018 R34/190065 R35/290060 NOSIG


Station Type Date Time Source
UBBB Decoded METAR 2019/02/17 08:00 UTC NOAA

Baku / Bine Airport, Azerbaijan (UBBB) 40-27N 050-04E -1M
Feb 17, 2019 - 03:00 AM EST / 2019.02.17 0800 UTC
Wind: from the NW (320 degrees) at 13 MPH (11 KT):0
Visibility: greater than 7 mile(s):0
Sky conditions: mostly cloudy
Temperature: 42 F (6 C)
Dew Point: 37 F (3 C)
Relative Humidity: 81%
Pressure (altimeter): 30.06 in. Hg (1018 hPa)
ob: UBBB 170800Z 32011KT 9999 SCT017 BKN046 06/03 Q1018 R34/190065 R35/290060 NOSIG
cycle: 8

Station Type Date Time Source
UBBB TAF 2019/02/17 06:19 UTC NOAA

TAF UBBB 170517Z 1706/1806 32010KT 9999 BKN010 OVC020 TX06/1709Z TN03/1802Z
TEMPO 1706/1712 02006KT -RA BKN008 OVC017
TEMPO 1712/1715 VRB04KT
BECMG 1715/1717 19014KT


Example: see airport list